createdAt,value
2019-02-07T00:00:33.707Z,10.57
2019-02-07T00:03:01.603Z,12.37
2019-02-07T00:05:29.365Z,11.00
2019-02-07T00:07:57.555Z,11.73
2019-02-07T00:10:25.505Z,9.80
2019-02-07T00:12:53.669Z,10.50
2019-02-07T00:15:21.423Z,10.30
2019-02-07T00:17:49.375Z,11.17
2019-02-07T00:20:17.365Z,14.60
2019-02-07T00:22:45.105Z,12.73
2019-02-07T00:25:12.971Z,10.90
2019-02-07T00:27:40.813Z,11.43
2019-02-07T00:30:11.858Z,10.73
2019-02-07T00:32:39.753Z,10.93
2019-02-07T00:35:08.757Z,11.07
2019-02-07T00:37:36.671Z,10.00
2019-02-07T00:40:08.598Z,11.93
2019-02-07T00:42:36.328Z,11.37
2019-02-07T00:45:06.087Z,9.97
2019-02-07T00:47:33.991Z,10.67
2019-02-07T00:50:01.781Z,11.23
2019-02-07T00:52:29.691Z,9.60
2019-02-07T00:54:57.470Z,11.77
2019-02-07T00:57:25.197Z,9.17
2019-02-07T00:59:53.120Z,9.60
2019-02-07T01:02:21.031Z,12.57
2019-02-07T01:04:48.779Z,12.97
2019-02-07T01:07:16.635Z,11.13
2019-02-07T01:09:44.366Z,10.53
2019-02-07T01:12:12.143Z,11.57
2019-02-07T01:14:39.906Z,11.30
2019-02-07T01:17:08.127Z,10.50
2019-02-07T01:19:35.963Z,10.70
2019-02-07T01:22:04.004Z,10.30
2019-02-07T01:24:31.733Z,13.13
2019-02-07T01:26:59.536Z,12.73
2019-02-07T01:29:27.457Z,11.90
2019-02-07T01:31:55.346Z,9.33
2019-02-07T01:34:26.636Z,9.17
2019-02-07T01:36:54.537Z,8.83
2019-02-07T01:39:22.264Z,11.23
2019-02-07T01:41:50.050Z,9.50
2019-02-07T01:44:17.947Z,11.13
2019-02-07T01:46:45.896Z,9.77
2019-02-07T01:49:13.956Z,10.13
2019-02-07T01:51:42.060Z,9.07
2019-02-07T01:54:09.840Z,9.77
2019-02-07T01:56:37.672Z,9.37
2019-02-07T01:59:05.810Z,8.80
2019-02-07T02:01:33.576Z,8.57
2019-02-07T02:04:01.297Z,9.40
2019-02-07T02:06:29.072Z,12.37
2019-02-07T02:08:57.223Z,8.47
2019-02-07T02:11:25.006Z,8.93
2019-02-07T02:13:52.753Z,7.80
2019-02-07T02:16:20.539Z,8.67
2019-02-07T02:18:48.327Z,6.97
2019-02-07T02:21:16.063Z,8.67
2019-02-07T02:23:43.978Z,8.37
2019-02-07T02:26:11.864Z,7.03
2019-02-07T02:28:39.689Z,6.80
2019-02-07T02:31:07.489Z,6.87
2019-02-07T02:33:35.361Z,7.83
2019-02-07T02:36:03.265Z,6.80
2019-02-07T02:38:31.240Z,5.63
2019-02-07T02:40:59.047Z,6.87
2019-02-07T02:43:26.811Z,7.53
2019-02-07T02:45:54.579Z,7.93
2019-02-07T02:48:22.483Z,8.10
2019-02-07T02:50:50.263Z,5.90
2019-02-07T02:53:18.209Z,7.57
2019-02-07T02:55:46.000Z,6.63
2019-02-07T02:58:13.984Z,5.23
2019-02-07T03:00:58.730Z,6.83
2019-02-07T03:03:55.102Z,6.73
2019-02-07T03:06:51.463Z,8.40
2019-02-07T03:09:37.327Z,6.73
2019-02-07T03:12:33.837Z,7.37
2019-02-07T03:15:21.214Z,6.20
2019-02-07T03:18:17.695Z,7.07
2019-02-07T03:20:57.699Z,7.07
2019-02-07T03:23:43.517Z,7.23
2019-02-07T03:26:33.825Z,6.70
2019-02-07T03:29:13.321Z,6.33
2019-02-07T03:31:59.209Z,5.23
2019-02-07T03:34:45.098Z,7.53
2019-02-07T03:37:38.606Z,7.47
2019-02-07T03:40:21.062Z,7.17
2019-02-07T03:43:02.479Z,7.77
2019-02-07T03:45:42.423Z,6.67
2019-02-07T03:48:35.932Z,5.77
2019-02-07T03:51:26.589Z,7.40
2019-02-07T03:54:13.953Z,10.23
2019-02-07T03:57:11.533Z,6.83
2019-02-07T03:59:55.967Z,6.60
2019-02-07T04:02:42.069Z,6.97
2019-02-07T04:05:28.553Z,7.77
2019-02-07T04:08:24.610Z,6.03
2019-02-07T04:11:08.475Z,6.63
2019-02-07T04:14:04.730Z,7.13
2019-02-07T04:16:57.987Z,5.60
2019-02-07T04:19:50.974Z,6.40
2019-02-07T04:22:36.735Z,6.20
2019-02-07T04:25:24.568Z,6.50
2019-02-07T04:28:03.982Z,9.93
2019-02-07T04:30:49.958Z,7.83
2019-02-07T04:33:48.878Z,6.20
2019-02-07T04:36:36.273Z,5.50
2019-02-07T04:39:25.554Z,5.50
2019-02-07T04:42:21.920Z,6.50
2019-02-07T04:45:10.396Z,6.93
2019-02-07T04:48:03.584Z,5.40
2019-02-07T04:50:50.960Z,5.93
2019-02-07T04:53:38.334Z,5.47
2019-02-07T04:56:31.587Z,6.93
2019-02-07T04:59:33.912Z,5.87
2019-02-07T05:02:20.032Z,5.37
2019-02-07T05:05:07.599Z,5.13
2019-02-07T05:08:00.828Z,6.00
2019-02-07T05:10:57.307Z,7.03
2019-02-07T05:13:56.578Z,7.47
2019-02-07T05:16:43.747Z,5.90
2019-02-07T05:19:29.921Z,6.57
2019-02-07T05:22:28.843Z,6.73
2019-02-07T05:25:14.651Z,6.43
2019-02-07T05:28:11.117Z,5.33
2019-02-07T05:31:01.221Z,7.30
2019-02-07T05:33:56.609Z,7.87
2019-02-07T05:36:46.978Z,7.77
2019-02-07T05:39:40.192Z,6.47
2019-02-07T05:42:26.168Z,5.57
2019-02-07T05:45:12.172Z,9.80
2019-02-07T05:48:03.050Z,7.20
2019-02-07T05:50:49.796Z,6.23
2019-02-07T05:53:28.162Z,6.70
2019-02-07T05:56:21.337Z,8.50
2019-02-07T05:59:06.855Z,6.93
2019-02-07T06:02:03.170Z,7.43
2019-02-07T06:04:53.939Z,6.57
2019-02-07T06:07:39.865Z,8.33
2019-02-07T06:10:47.139Z,7.33
2019-02-07T06:13:32.814Z,9.77
2019-02-07T06:16:29.230Z,6.87
2019-02-07T06:19:19.440Z,6.40
2019-02-07T06:22:19.002Z,9.93
2019-02-07T06:24:56.908Z,9.80
2019-02-07T06:27:48.235Z,8.10
2019-02-07T06:30:42.178Z,6.10
2019-02-07T06:33:41.695Z,10.20
2019-02-07T06:36:35.111Z,6.93
2019-02-07T06:39:35.873Z,7.37
2019-02-07T06:42:23.408Z,6.73
2019-02-07T06:45:10.807Z,7.50
2019-02-07T06:47:54.541Z,6.33
2019-02-07T06:50:41.943Z,6.30
2019-02-07T06:53:27.754Z,7.93
2019-02-07T06:56:25.650Z,7.50
2019-02-07T06:59:02.561Z,8.77
2019-02-07T07:01:42.503Z,7.33
2019-02-07T07:04:30.091Z,6.77
2019-02-07T07:07:29.288Z,6.23
2019-02-07T07:10:15.174Z,8.93
2019-02-07T07:13:05.646Z,7.37
2019-02-07T07:15:55.793Z,7.50
2019-02-07T07:18:51.621Z,5.77
2019-02-07T07:21:38.998Z,6.73
2019-02-07T07:24:25.083Z,6.37
2019-02-07T07:27:18.614Z,7.47
2019-02-07T07:30:11.904Z,7.17
2019-02-07T07:33:00.744Z,5.17
2019-02-07T07:35:46.588Z,7.60
2019-02-07T07:38:22.223Z,7.47
2019-02-07T07:41:07.973Z,7.47
2019-02-07T07:43:54.059Z,5.60
2019-02-07T07:46:40.054Z,8.50
2019-02-07T07:49:26.181Z,9.43
2019-02-07T07:52:12.290Z,7.53
2019-02-07T07:54:58.306Z,10.93
2019-02-07T07:57:34.427Z,12.20
2019-02-07T08:00:14.081Z,9.77
2019-02-07T08:03:16.618Z,11.93
2019-02-07T08:06:12.568Z,6.90
2019-02-07T08:08:58.532Z,8.43
2019-02-07T08:11:33.484Z,9.87
2019-02-07T08:14:24.004Z,6.90
2019-02-07T08:17:23.275Z,8.47
2019-02-07T08:20:09.254Z,8.30
2019-02-07T08:22:56.677Z,8.23
2019-02-07T08:25:56.256Z,7.37
2019-02-07T08:28:32.271Z,9.57
2019-02-07T08:31:17.065Z,8.37
2019-02-07T08:34:16.363Z,7.83
2019-02-07T08:37:01.513Z,7.13
2019-02-07T08:39:46.068Z,7.83
2019-02-07T08:42:33.833Z,8.23
2019-02-07T08:45:19.933Z,7.47
2019-02-07T08:48:05.420Z,7.57
2019-02-07T08:50:55.938Z,9.73
2019-02-07T08:53:54.859Z,8.43
2019-02-07T08:56:54.160Z,11.40
2019-02-07T08:59:40.077Z,8.53
2019-02-07T09:02:24.924Z,10.77
2019-02-07T09:05:00.299Z,7.43
2019-02-07T09:07:59.209Z,6.03
2019-02-07T09:10:49.374Z,5.97
2019-02-07T09:13:27.860Z,8.30
2019-02-07T09:16:13.104Z,6.83
2019-02-07T09:18:59.093Z,9.63
2019-02-07T09:21:45.292Z,10.93
2019-02-07T09:24:44.864Z,7.93
2019-02-07T09:27:38.366Z,10.50
2019-02-07T09:30:28.266Z,9.50
2019-02-07T09:33:13.876Z,9.20
2019-02-07T09:36:09.932Z,7.10
2019-02-07T09:39:11.174Z,6.60
2019-02-07T09:41:58.562Z,8.33
2019-02-07T09:45:03.529Z,11.30
2019-02-07T09:47:50.938Z,7.57
2019-02-07T09:50:50.456Z,10.00
2019-02-07T09:53:36.213Z,10.43
2019-02-07T09:56:22.451Z,10.00
2019-02-07T09:59:03.335Z,7.67
2019-02-07T10:01:43.369Z,9.53
2019-02-07T10:04:30.771Z,9.10
2019-02-07T10:07:18.701Z,8.90
2019-02-07T10:10:00.330Z,8.00
2019-02-07T10:12:46.019Z,8.90
2019-02-07T10:15:48.502Z,8.67
2019-02-07T10:18:33.076Z,7.33
2019-02-07T10:21:11.009Z,6.00
2019-02-07T10:23:58.038Z,7.43
2019-02-07T10:26:49.787Z,7.90
2019-02-07T10:29:43.052Z,8.17
2019-02-07T10:32:26.292Z,7.53
2019-02-07T10:35:22.881Z,8.27
2019-02-07T10:38:14.937Z,7.57
2019-02-07T10:41:00.523Z,8.03
2019-02-07T10:43:47.849Z,8.30
2019-02-07T10:46:31.003Z,9.70
2019-02-07T10:49:18.571Z,9.63
2019-02-07T10:52:08.694Z,10.13
2019-02-07T10:54:46.572Z,9.90
2019-02-07T10:57:32.343Z,11.27
2019-02-07T11:00:22.880Z,11.17
2019-02-07T11:03:14.312Z,9.17
2019-02-07T11:06:00.063Z,9.00
2019-02-07T11:08:46.163Z,10.63
2019-02-07T11:11:22.600Z,10.10
2019-02-07T11:14:13.711Z,12.13
2019-02-07T11:16:51.636Z,12.13
2019-02-07T11:19:36.428Z,11.03
2019-02-07T11:22:36.181Z,11.17
2019-02-07T11:25:36.760Z,9.67
2019-02-07T11:28:30.217Z,10.33
2019-02-07T11:31:17.571Z,10.20
2019-02-07T11:34:11.044Z,9.83
2019-02-07T11:37:04.288Z,12.97
2019-02-07T11:39:46.130Z,11.40
2019-02-07T11:42:31.555Z,12.03
2019-02-07T11:45:17.754Z,11.80
2019-02-07T11:48:05.124Z,12.90
2019-02-07T11:50:51.147Z,11.03
2019-02-07T11:53:32.937Z,13.07
2019-02-07T11:56:32.206Z,13.47
2019-02-07T11:59:31.330Z,12.87
2019-02-07T12:02:18.708Z,15.00
2019-02-07T12:05:17.306Z,11.90
2019-02-07T12:07:58.422Z,12.23
2019-02-07T12:10:44.252Z,12.60
2019-02-07T12:13:31.620Z,11.90
2019-02-07T12:16:34.207Z,13.47
2019-02-07T12:19:21.605Z,14.23
2019-02-07T12:22:03.241Z,14.17
2019-02-07T12:24:49.456Z,13.40
2019-02-07T12:27:34.942Z,16.03
2019-02-07T12:30:30.895Z,13.07
2019-02-07T12:33:21.262Z,22.20
2019-02-07T12:36:17.657Z,14.53
2019-02-07T12:39:05.754Z,14.20
2019-02-07T12:41:51.831Z,16.67
2019-02-07T12:44:40.241Z,17.50
2019-02-07T12:47:34.510Z,16.00
2019-02-07T12:50:33.798Z,15.63
2019-02-07T12:53:18.737Z,13.83
2019-02-07T12:56:12.277Z,15.30
2019-02-07T12:58:57.970Z,15.97
2019-02-07T13:01:41.254Z,13.70
2019-02-07T13:04:38.022Z,14.30
2019-02-07T13:07:25.215Z,17.10
2019-02-07T13:10:11.435Z,13.40
2019-02-07T13:12:56.841Z,17.07
2019-02-07T13:15:56.151Z,14.53
2019-02-07T13:18:50.906Z,15.83
2019-02-07T13:21:41.250Z,16.03
2019-02-07T13:24:31.488Z,14.33
2019-02-07T13:27:37.497Z,17.00
2019-02-07T13:30:28.656Z,16.20
2019-02-07T13:33:14.454Z,15.80
2019-02-07T13:36:00.544Z,17.40
2019-02-07T13:39:06.366Z,16.60
2019-02-07T13:42:05.787Z,19.33
2019-02-07T13:45:05.221Z,16.47
2019-02-07T13:47:58.404Z,16.83
2019-02-07T13:50:36.888Z,17.50
2019-02-07T13:53:15.938Z,16.57
2019-02-07T13:56:03.360Z,17.27
2019-02-07T13:58:42.044Z,18.70
2019-02-07T14:01:30.344Z,18.73
2019-02-07T14:04:17.792Z,17.53
2019-02-07T14:07:03.786Z,17.70
2019-02-07T14:09:49.388Z,18.60
2019-02-07T14:12:28.370Z,19.47
2019-02-07T14:15:07.361Z,19.33
2019-02-07T14:17:57.284Z,19.57
2019-02-07T14:20:54.211Z,20.07
2019-02-07T14:23:44.373Z,17.17
2019-02-07T14:26:32.402Z,20.30
2019-02-07T14:29:22.928Z,18.53
2019-02-07T14:32:10.347Z,20.47
2019-02-07T14:34:51.243Z,20.17
2019-02-07T14:37:28.607Z,19.90
2019-02-07T14:40:11.135Z,18.10
2019-02-07T14:42:47.185Z,19.67
2019-02-07T14:45:33.101Z,20.67
2019-02-07T14:48:01.193Z,20.47
2019-02-07T14:50:28.995Z,18.73
2019-02-07T14:52:56.824Z,17.63
2019-02-07T14:55:24.834Z,21.17
2019-02-07T14:57:52.563Z,18.27
2019-02-07T15:00:22.755Z,19.27
2019-02-07T15:02:50.663Z,19.20
2019-02-07T15:05:18.417Z,19.97
2019-02-07T15:07:46.233Z,21.23
2019-02-07T15:10:16.509Z,19.07
2019-02-07T15:12:44.406Z,19.73
2019-02-07T15:15:13.809Z,20.17
2019-02-07T15:17:41.559Z,20.37
2019-02-07T15:20:09.915Z,19.17
2019-02-07T15:22:37.685Z,18.17
2019-02-07T15:25:06.079Z,20.30
2019-02-07T15:27:34.164Z,18.60
2019-02-07T15:30:02.071Z,20.37
2019-02-07T15:32:30.062Z,17.23
2019-02-07T15:34:57.852Z,18.97
2019-02-07T15:37:25.577Z,19.73
2019-02-07T15:39:53.405Z,23.70
2019-02-07T15:42:21.381Z,19.77
2019-02-07T15:44:49.466Z,21.10
2019-02-07T15:47:17.184Z,21.97
2019-02-07T15:49:45.291Z,21.30
2019-02-07T15:52:13.873Z,18.53
2019-02-07T15:54:41.881Z,19.20
2019-02-07T15:57:09.636Z,18.97
2019-02-07T15:59:50.443Z,21.67
2019-02-07T16:02:28.009Z,22.33
2019-02-07T16:04:56.081Z,19.33
2019-02-07T16:07:23.870Z,19.83
2019-02-07T16:09:51.836Z,15.93
2019-02-07T16:12:19.703Z,18.93
2019-02-07T16:14:47.754Z,20.60
2019-02-07T16:17:15.528Z,17.50
2019-02-07T16:19:43.284Z,18.60
2019-02-07T16:22:11.250Z,19.10
2019-02-07T16:24:39.085Z,19.73
2019-02-07T16:27:06.878Z,20.17
2019-02-07T16:29:35.195Z,19.57
2019-02-07T16:32:04.397Z,17.03
2019-02-07T16:34:32.359Z,19.03
2019-02-07T16:37:00.159Z,19.93
2019-02-07T16:39:27.957Z,17.23
2019-02-07T16:42:05.759Z,19.40
2019-02-07T16:44:25.685Z,17.87
2019-02-07T16:46:54.531Z,17.17
2019-02-07T16:49:22.552Z,17.20
2019-02-07T16:51:50.303Z,16.87
2019-02-07T16:54:18.093Z,18.77
2019-02-07T16:56:45.897Z,17.77
2019-02-07T16:59:13.961Z,17.50
2019-02-07T17:01:41.998Z,17.17
2019-02-07T17:04:09.871Z,17.60
2019-02-07T17:06:37.613Z,16.37
2019-02-07T17:09:18.636Z,18.73
2019-02-07T17:11:51.414Z,18.20
2019-02-07T17:14:19.183Z,15.77
2019-02-07T17:16:47.067Z,16.60
2019-02-07T17:19:14.970Z,14.57
2019-02-07T17:21:42.932Z,17.37
2019-02-07T17:24:10.988Z,14.77
2019-02-07T17:26:38.788Z,16.97
2019-02-07T17:29:06.928Z,18.10
2019-02-07T17:31:34.769Z,17.93
2019-02-07T17:34:02.542Z,17.53
2019-02-07T17:36:30.413Z,18.63
2019-02-07T17:38:58.262Z,14.60
2019-02-07T17:41:26.180Z,17.43
2019-02-07T17:43:53.950Z,18.57
2019-02-07T17:46:21.762Z,16.40
2019-02-07T17:48:49.549Z,17.20
2019-02-07T17:51:23.391Z,16.50
2019-02-07T17:53:47.084Z,20.13
2019-02-07T17:56:14.850Z,19.63
2019-02-07T17:58:42.660Z,17.87
2019-02-07T18:01:10.861Z,17.27
2019-02-07T18:03:38.608Z,15.33
2019-02-07T18:06:08.889Z,15.90
2019-02-07T18:08:36.750Z,19.53
2019-02-07T18:11:05.906Z,16.67
2019-02-07T18:13:34.013Z,17.20
2019-02-07T18:16:01.807Z,19.07
2019-02-07T18:18:29.615Z,15.97
2019-02-07T18:20:57.379Z,18.03
2019-02-07T18:23:25.467Z,17.10
2019-02-07T18:25:53.372Z,17.73
2019-02-07T18:28:21.155Z,16.47
2019-02-07T18:30:48.959Z,16.83
2019-02-07T18:33:16.801Z,16.70
2019-02-07T18:35:44.560Z,15.63
2019-02-07T18:38:12.334Z,16.03
2019-02-07T18:40:40.423Z,18.60
2019-02-07T18:43:08.243Z,17.07
2019-02-07T18:45:36.469Z,15.93
2019-02-07T18:48:04.349Z,17.97
2019-02-07T18:50:34.536Z,18.27
2019-02-07T18:53:03.274Z,16.33
2019-02-07T18:55:31.120Z,16.37
2019-02-07T18:57:59.421Z,18.10
2019-02-07T19:00:29.883Z,17.80
2019-02-07T19:02:57.703Z,18.63
2019-02-07T19:05:25.593Z,19.20
2019-02-07T19:07:53.467Z,19.97
2019-02-07T19:10:22.474Z,17.43
2019-02-07T19:12:50.328Z,21.03
2019-02-07T19:15:28.327Z,20.63
2019-02-07T19:17:56.090Z,17.93
2019-02-07T19:20:23.878Z,17.43
2019-02-07T19:22:51.699Z,22.90
2019-02-07T19:25:19.665Z,18.97
2019-02-07T19:27:47.493Z,19.17
2019-02-07T19:30:20.574Z,21.10
2019-02-07T19:32:48.376Z,18.47
2019-02-07T19:35:16.152Z,18.30
2019-02-07T19:37:43.966Z,19.30
2019-02-07T19:40:12.356Z,20.63
2019-02-07T19:42:40.198Z,20.10
2019-02-07T19:45:09.516Z,19.37
2019-02-07T19:47:37.284Z,22.73
2019-02-07T19:50:09.939Z,21.40
2019-02-07T19:52:39.658Z,22.07
2019-02-07T19:55:11.559Z,22.60
2019-02-07T19:57:39.354Z,24.57
2019-02-07T20:00:11.913Z,24.97
2019-02-07T20:02:40.048Z,22.50
2019-02-07T20:05:09.126Z,18.93
2019-02-07T20:07:36.989Z,21.63
2019-02-07T20:10:08.369Z,22.37
2019-02-07T20:12:36.147Z,24.27
2019-02-07T20:15:13.402Z,21.03
2019-02-07T20:17:41.195Z,20.00
2019-02-07T20:20:09.478Z,20.63
2019-02-07T20:22:37.376Z,22.80
2019-02-07T20:25:06.119Z,22.30
2019-02-07T20:27:33.973Z,22.53
2019-02-07T20:30:01.733Z,18.73
2019-02-07T20:32:29.528Z,21.57
2019-02-07T20:34:57.599Z,22.93
2019-02-07T20:37:25.391Z,20.57
2019-02-07T20:39:54.024Z,19.50
2019-02-07T20:42:21.821Z,20.90
2019-02-07T20:44:49.618Z,19.30
2019-02-07T20:47:17.419Z,21.80
2019-02-07T20:49:45.221Z,23.80
2019-02-07T20:52:13.052Z,20.43
2019-02-07T20:54:40.918Z,23.63
2019-02-07T20:57:08.705Z,21.70
2019-02-07T20:59:36.585Z,24.30
2019-02-07T21:02:04.537Z,22.10
2019-02-07T21:04:32.321Z,21.63
2019-02-07T21:07:00.085Z,22.57
2019-02-07T21:09:27.898Z,23.13
2019-02-07T21:11:56.109Z,24.27
2019-02-07T21:14:23.916Z,24.63
2019-02-07T21:16:51.668Z,23.10
2019-02-07T21:19:19.465Z,24.03
2019-02-07T21:21:47.257Z,23.67
2019-02-07T21:24:15.047Z,24.60
2019-02-07T21:26:42.835Z,24.23
2019-02-07T21:29:10.622Z,21.40
2019-02-07T21:31:38.696Z,24.87
2019-02-07T21:34:06.512Z,20.87
2019-02-07T21:36:34.279Z,23.90
2019-02-07T21:39:04.134Z,21.23
2019-02-07T21:41:31.889Z,24.20
2019-02-07T21:43:59.673Z,23.30
2019-02-07T21:46:27.451Z,23.90
2019-02-07T21:48:55.260Z,23.30
2019-02-07T21:51:23.014Z,24.67
2019-02-07T21:53:50.790Z,21.90
2019-02-07T21:56:18.560Z,23.50
2019-02-07T21:58:46.358Z,24.53
2019-02-07T22:01:14.178Z,22.57
2019-02-07T22:03:41.986Z,21.73
2019-02-07T22:06:09.780Z,23.70
2019-02-07T22:08:37.743Z,22.20
2019-02-07T22:11:05.586Z,23.13
2019-02-07T22:13:33.364Z,22.37
2019-02-07T22:16:01.172Z,25.23
2019-02-07T22:18:28.932Z,25.17
2019-02-07T22:20:56.699Z,25.97
2019-02-07T22:23:24.460Z,31.83
2019-02-07T22:25:52.479Z,25.77
2019-02-07T22:28:20.213Z,26.87
2019-02-07T22:30:47.973Z,25.97
2019-02-07T22:33:15.744Z,22.70
2019-02-07T22:35:43.496Z,23.53
2019-02-07T22:38:11.443Z,22.77
2019-02-07T22:40:39.251Z,22.43
2019-02-07T22:43:07.364Z,22.67
2019-02-07T22:45:35.127Z,22.53
2019-02-07T22:48:03.015Z,21.53
2019-02-07T22:50:30.883Z,21.77
2019-02-07T22:52:59.738Z,21.70
2019-02-07T22:55:27.791Z,21.60
2019-02-07T22:57:55.687Z,22.00
2019-02-07T23:01:27.461Z,21.77
2019-02-07T23:04:05.749Z,21.20
2019-02-07T23:06:33.675Z,25.07
2019-02-07T23:09:01.425Z,22.87
2019-02-07T23:11:31.969Z,24.30
2019-02-07T23:13:59.726Z,21.53
2019-02-07T23:16:27.865Z,24.33
2019-02-07T23:18:55.697Z,23.30
2019-02-07T23:21:23.444Z,20.40
2019-02-07T23:23:51.226Z,20.93
2019-02-07T23:26:18.983Z,23.73
2019-02-07T23:28:46.737Z,22.53
2019-02-07T23:31:14.655Z,21.77
2019-02-07T23:33:42.821Z,22.07
2019-02-07T23:36:10.761Z,19.93
2019-02-07T23:38:38.672Z,22.03
2019-02-07T23:41:08.083Z,20.53
2019-02-07T23:43:36.399Z,21.27
2019-02-07T23:46:04.708Z,20.17
2019-02-07T23:48:32.699Z,20.80
2019-02-07T23:51:01.002Z,23.50
2019-02-07T23:53:28.797Z,18.97
2019-02-07T23:55:56.706Z,20.20
2019-02-07T23:58:24.504Z,19.60
